Guanaja, Honduras
Current Conditions -  °F | °C
As of 2:00 PM on Friday 31 Oct 2014 (Local Time) from MHRO Reporting Station
Moderate Rain Moderate Rain  
Wind Chill: 82°   Ceiling: 8000
Heat Index: 91°   Visibility: 5mi
Dew Point: 77°   Wind: 0mph
Humidity: 84%   Direction: NA
Pressure: 29.85"   Gusts: NA
Location:  16.43°N, 85.88°W
Report Text: MHRO 312000Z 00000KT 8000 RA SCT020CB OVC080 28/25 Q1011 A2986NOSIG
Loading
Personal Weather Stations






























Interactive Weather Map
Tropical Storm Tracking
New forecast layout! Learn more

10-Day Weather Forecast

Advertisements
Track Severe Weather on mobile